sensor_id;sensor_type;location;lat;lon;timestamp;pressure;altitude;pressure_sealevel;temperature;humidity
62791;BME280;48830;53.426;10.300;2024-02-21T00:04:17;101732.56;;;22.78;72.18
62791;BME280;48830;53.426;10.300;2024-02-21T00:06:43;101737.81;;;22.78;72.13
62791;BME280;48830;53.426;10.300;2024-02-21T00:09:08;101739.63;;;22.76;72.36
62791;BME280;48830;53.426;10.300;2024-02-21T00:11:35;101736.09;;;22.77;72.14
62791;BME280;48830;53.426;10.300;2024-02-21T00:14:00;101744.84;;;22.76;72.00
62791;BME280;48830;53.426;10.300;2024-02-21T00:16:26;101731.66;;;22.79;72.24
62791;BME280;48830;53.426;10.300;2024-02-21T00:18:51;101730.75;;;22.80;72.25
62791;BME280;48830;53.426;10.300;2024-02-21T00:21:16;101728.16;;;22.80;72.02
62791;BME280;48830;53.426;10.300;2024-02-21T00:23:46;101729.03;;;22.79;72.13
62791;BME280;48830;53.426;10.300;2024-02-21T00:26:14;101719.50;;;22.77;71.76
62791;BME280;48830;53.426;10.300;2024-02-21T00:28:40;101727.31;;;22.78;71.85
62791;BME280;48830;53.426;10.300;2024-02-21T00:31:05;101717.69;;;22.79;72.20
62791;BME280;48830;53.426;10.300;2024-02-21T00:33:31;101710.69;;;22.79;72.28
62791;BME280;48830;53.426;10.300;2024-02-21T00:35:56;101701.94;;;22.80;72.39
62791;BME280;48830;53.426;10.300;2024-02-21T00:38:21;101706.31;;;22.80;71.88
62791;BME280;48830;53.426;10.300;2024-02-21T00:40:47;101705.41;;;22.81;71.87
62791;BME280;48830;53.426;10.300;2024-02-21T00:43:12;101700.28;;;22.76;72.04
62791;BME280;48830;53.426;10.300;2024-02-21T00:45:38;101695.88;;;22.78;72.07
62791;BME280;48830;53.426;10.300;2024-02-21T00:48:04;101685.38;;;22.78;71.98
62791;BME280;48830;53.426;10.300;2024-02-21T00:50:29;101681.94;;;22.76;71.97
62791;BME280;48830;53.426;10.300;2024-02-21T00:52:55;101681.84;;;22.79;72.03
62791;BME280;48830;53.426;10.300;2024-02-21T00:57:45;101675.81;;;22.77;72.21
62791;BME280;48830;53.426;10.300;2024-02-21T01:00:11;101677.56;;;22.77;72.41
62791;BME280;48830;53.426;10.300;2024-02-21T01:02:37;101673.19;;;22.77;72.38
62791;BME280;48830;53.426;10.300;2024-02-21T01:05:02;101669.66;;;22.78;72.06
62791;BME280;48830;53.426;10.300;2024-02-21T01:07:28;101666.22;;;22.76;72.16
62791;BME280;48830;53.426;10.300;2024-02-21T01:09:53;101660.97;;;22.76;72.26
62791;BME280;48830;53.426;10.300;2024-02-21T01:12:18;101664.47;;;22.75;71.86
62791;BME280;48830;53.426;10.300;2024-02-21T01:14:44;101656.63;;;22.74;72.35
62791;BME280;48830;53.426;10.300;2024-02-21T01:17:11;101655.72;;;22.76;72.13
62791;BME280;48830;53.426;10.300;2024-02-21T01:19:36;101657.50;;;22.74;72.34
62791;BME280;48830;53.426;10.300;2024-02-21T01:22:02;101659.22;;;22.75;71.93
62791;BME280;48830;53.426;10.300;2024-02-21T01:24:28;101648.69;;;22.78;71.99
62791;BME280;48830;53.426;10.300;2024-02-21T01:26:53;101638.28;;;22.74;72.12
62791;BME280;48830;53.426;10.300;2024-02-21T01:29:18;101649.69;;;22.73;72.36
62791;BME280;48830;53.426;10.300;2024-02-21T01:31:44;101631.34;;;22.73;72.08
62791;BME280;48830;53.426;10.300;2024-02-21T01:34:09;101632.19;;;22.73;71.94
62791;BME280;48830;53.426;10.300;2024-02-21T01:36:35;101623.44;;;22.74;72.22
62791;BME280;48830;53.426;10.300;2024-02-21T01:39:00;101629.56;;;22.73;72.03
62791;BME280;48830;53.426;10.300;2024-02-21T01:41:25;101626.13;;;22.71;72.27
62791;BME280;48830;53.426;10.300;2024-02-21T01:43:51;101624.31;;;22.73;71.93
62791;BME280;48830;53.426;10.300;2024-02-21T01:46:16;101626.03;;;22.74;72.18
62791;BME280;48830;53.426;10.300;2024-02-21T01:48:42;101618.22;;;22.73;72.27
62791;BME280;48830;53.426;10.300;2024-02-21T01:51:08;101618.28;;;22.70;72.36
62791;BME280;48830;53.426;10.300;2024-02-21T01:53:37;101612.13;;;22.72;72.36
62791;BME280;48830;53.426;10.300;2024-02-21T01:56:05;101603.50;;;22.67;72.55
62791;BME280;48830;53.426;10.300;2024-02-21T01:58:32;101599.91;;;22.71;72.02
62791;BME280;48830;53.426;10.300;2024-02-21T02:00:59;101599.97;;;22.68;72.37
62791;BME280;48830;53.426;10.300;2024-02-21T02:03:24;101585.09;;;22.69;72.31
62791;BME280;48830;53.426;10.300;2024-02-21T02:05:50;101581.63;;;22.68;72.40
62791;BME280;48830;53.426;10.300;2024-02-21T02:08:17;101581.72;;;22.64;72.19
62791;BME280;48830;53.426;10.300;2024-02-21T02:10:43;101570.31;;;22.66;72.31
62791;BME280;48830;53.426;10.300;2024-02-21T02:13:10;101566.84;;;22.64;72.55
62791;BME280;48830;53.426;10.300;2024-02-21T02:15:40;101563.34;;;22.65;72.17
62791;BME280;48830;53.426;10.300;2024-02-21T02:18:05;101558.13;;;22.64;72.36
62791;BME280;48830;53.426;10.300;2024-02-21T02:20:31;101556.38;;;22.64;72.20
62791;BME280;48830;53.426;10.300;2024-02-21T02:23:03;101551.19;;;22.63;72.81
62791;BME280;48830;53.426;10.300;2024-02-21T02:25:32;101537.22;;;22.62;72.39
62791;BME280;48830;53.426;10.300;2024-02-21T02:27:57;101535.50;;;22.61;72.64
62791;BME280;48830;53.426;10.300;2024-02-21T02:30:22;101520.59;;;22.63;72.51
62791;BME280;48830;53.426;10.300;2024-02-21T02:32:48;101523.22;;;22.63;72.13
62791;BME280;48830;53.426;10.300;2024-02-21T02:35:13;101519.69;;;22.64;72.29
62791;BME280;48830;53.426;10.300;2024-02-21T02:37:39;101500.53;;;22.62;72.20
62791;BME280;48830;53.426;10.300;2024-02-21T02:40:06;101495.28;;;22.62;72.28
62791;BME280;48830;53.426;10.300;2024-02-21T02:42:32;101485.72;;;22.61;72.12
62791;BME280;48830;53.426;10.300;2024-02-21T02:44:57;101496.19;;;22.60;72.58
62791;BME280;48830;53.426;10.300;2024-02-21T02:47:23;101476.19;;;22.57;72.26
62791;BME280;48830;53.426;10.300;2024-02-21T02:49:48;101473.53;;;22.59;72.25
62791;BME280;48830;53.426;10.300;2024-02-21T02:52:16;101472.66;;;22.58;72.21
62791;BME280;48830;53.426;10.300;2024-02-21T02:54:43;101471.75;;;22.59;72.54
62791;BME280;48830;53.426;10.300;2024-02-21T02:57:08;101459.50;;;22.61;72.62
62791;BME280;48830;53.426;10.300;2024-02-21T02:59:35;101467.38;;;22.60;72.03
62791;BME280;48830;53.426;10.300;2024-02-21T03:02:00;101466.53;;;22.59;72.35
62791;BME280;48830;53.426;10.300;2024-02-21T03:04:25;101451.63;;;22.61;72.25
62791;BME280;48830;53.426;10.300;2024-02-21T03:06:51;101447.25;;;22.62;72.10
62791;BME280;48830;53.426;10.300;2024-02-21T03:09:16;101440.22;;;22.64;72.29
62791;BME280;48830;53.426;10.300;2024-02-21T03:11:42;101435.91;;;22.61;72.37
62791;BME280;48830;53.426;10.300;2024-02-21T03:14:09;101437.69;;;22.61;72.14
62791;BME280;48830;53.426;10.300;2024-02-21T03:16:35;101435.97;;;22.58;72.66
62791;BME280;48830;53.426;10.300;2024-02-21T03:19:00;101432.44;;;22.59;72.21
62791;BME280;48830;53.426;10.300;2024-02-21T03:21:25;101437.69;;;22.61;72.33
62791;BME280;48830;53.426;10.300;2024-02-21T03:23:51;101435.06;;;22.61;71.96
62791;BME280;48830;53.426;10.300;2024-02-21T03:26:16;101432.41;;;22.62;72.39
62791;BME280;48830;53.426;10.300;2024-02-21T03:28:43;101447.25;;;22.62;72.38
62791;BME280;48830;53.426;10.300;2024-02-21T03:31:11;101457.69;;;22.63;72.20
62791;BME280;48830;53.426;10.300;2024-02-21T03:33:37;101464.63;;;22.66;71.94
62791;BME280;48830;53.426;10.300;2024-02-21T03:36:03;101466.34;;;22.67;72.22
62791;BME280;48830;53.426;10.300;2024-02-21T03:38:29;101462.78;;;22.69;72.08
62791;BME280;48830;53.426;10.300;2024-02-21T03:40:54;101471.44;;;22.73;71.49
62791;BME280;48830;53.426;10.300;2024-02-21T03:43:20;101469.69;;;22.73;71.64
62791;BME280;48830;53.426;10.300;2024-02-21T03:45:45;101474.88;;;22.75;71.78
62791;BME280;48830;53.426;10.300;2024-02-21T03:48:10;101474.91;;;22.73;71.52
62791;BME280;48830;53.426;10.300;2024-02-21T03:50:36;101480.97;;;22.75;71.91
62791;BME280;48830;53.426;10.300;2024-02-21T03:53:01;101472.25;;;22.76;71.71
62791;BME280;48830;53.426;10.300;2024-02-21T03:55:26;101477.50;;;22.76;71.39
62791;BME280;48830;53.426;10.300;2024-02-21T03:57:52;101480.00;;;22.79;71.42
62791;BME280;48830;53.426;10.300;2024-02-21T04:00:17;101481.78;;;22.79;71.56
62791;BME280;48830;53.426;10.300;2024-02-21T04:02:43;101482.59;;;22.81;71.72
62791;BME280;48830;53.426;10.300;2024-02-21T04:05:08;101475.59;;;22.82;71.49
62791;BME280;48830;53.426;10.300;2024-02-21T04:07:37;101477.31;;;22.83;71.36
62791;BME280;48830;53.426;10.300;2024-02-21T04:10:03;101472.09;;;22.83;71.56
62791;BME280;48830;53.426;10.300;2024-02-21T04:12:28;101465.03;;;22.85;71.04
62791;BME280;48830;53.426;10.300;2024-02-21T04:14:54;101469.41;;;22.84;71.79
62791;BME280;48830;53.426;10.300;2024-02-21T04:17:19;101471.09;;;22.87;71.47
62791;BME280;48830;53.426;10.300;2024-02-21T04:19:44;101454.53;;;22.88;71.54
62791;BME280;48830;53.426;10.300;2024-02-21T04:22:10;101457.94;;;22.90;70.39
62791;BME280;48830;53.426;10.300;2024-02-21T04:24:35;101454.41;;;22.91;71.58
62791;BME280;48830;53.426;10.300;2024-02-21T04:27:01;101452.66;;;22.93;71.47
62791;BME280;48830;53.426;10.300;2024-02-21T04:29:26;101445.66;;;22.92;71.04
62791;BME280;48830;53.426;10.300;2024-02-21T04:31:53;101451.75;;;22.92;71.06
62791;BME280;48830;53.426;10.300;2024-02-21T04:34:18;101443.00;;;22.93;71.29
62791;BME280;48830;53.426;10.300;2024-02-21T04:36:44;101439.47;;;22.94;71.06
62791;BME280;48830;53.426;10.300;2024-02-21T04:39:10;101435.97;;;22.95;71.31
62791;BME280;48830;53.426;10.300;2024-02-21T04:41:36;101431.56;;;22.96;71.08
62791;BME280;48830;53.426;10.300;2024-02-21T04:44:02;101424.53;;;22.98;70.93
62791;BME280;48830;53.426;10.300;2024-02-21T04:46:29;101423.63;;;22.99;70.80
62791;BME280;48830;53.426;10.300;2024-02-21T04:48:54;101425.34;;;23.00;70.77
62791;BME280;48830;53.426;10.300;2024-02-21T04:51:20;101413.16;;;22.99;70.91
62791;BME280;48830;53.426;10.300;2024-02-21T04:53:46;101419.19;;;23.01;71.24
62791;BME280;48830;53.426;10.300;2024-02-21T04:56:11;101414.88;;;23.00;70.65
62791;BME280;48830;53.426;10.300;2024-02-21T04:58:39;101418.28;;;23.02;70.92
62791;BME280;48830;53.426;10.300;2024-02-21T05:01:05;101420.91;;;23.03;70.75
62791;BME280;48830;53.426;10.300;2024-02-21T05:03:31;101420.00;;;23.04;70.52
62791;BME280;48830;53.426;10.300;2024-02-21T05:05:56;101408.59;;;23.05;70.48
62791;BME280;48830;53.426;10.300;2024-02-21T05:08:21;101417.31;;;23.06;70.84
62791;BME280;48830;53.426;10.300;2024-02-21T05:10:47;101413.78;;;23.07;70.55
62791;BME280;48830;53.426;10.300;2024-02-21T05:13:12;101421.66;;;23.07;70.67
62791;BME280;48830;53.426;10.300;2024-02-21T05:15:37;101415.50;;;23.08;70.73
62791;BME280;48830;53.426;10.300;2024-02-21T05:18:03;101419.88;;;23.09;70.89
62791;BME280;48830;53.426;10.300;2024-02-21T05:20:28;101421.63;;;23.09;70.39
62791;BME280;48830;53.426;10.300;2024-02-21T05:22:54;101421.59;;;23.10;71.03
62791;BME280;48830;53.426;10.300;2024-02-21T05:25:19;101419.81;;;23.11;70.69
62791;BME280;48830;53.426;10.300;2024-02-21T05:27:44;101416.34;;;23.10;70.33
62791;BME280;48830;53.426;10.300;2024-02-21T05:30:11;101420.69;;;23.11;70.90
62791;BME280;48830;53.426;10.300;2024-02-21T05:32:37;101407.56;;;23.11;70.65
62791;BME280;48830;53.426;10.300;2024-02-21T05:35:02;101411.06;;;23.12;70.64
62791;BME280;48830;53.426;10.300;2024-02-21T05:37:28;101411.91;;;23.12;70.76
62791;BME280;48830;53.426;10.300;2024-02-21T05:39:53;101413.59;;;23.15;70.84
62791;BME280;48830;53.426;10.300;2024-02-21T05:42:19;101416.22;;;23.15;70.83
62791;BME280;48830;53.426;10.300;2024-02-21T05:44:44;101405.75;;;23.15;70.55
62791;BME280;48830;53.426;10.300;2024-02-21T05:47:09;101409.22;;;23.15;70.87
62791;BME280;48830;53.426;10.300;2024-02-21T05:49:36;101409.16;;;23.17;70.92
62791;BME280;48830;53.426;10.300;2024-02-21T05:52:02;101403.91;;;23.17;70.25
62791;BME280;48830;53.426;10.300;2024-02-21T05:54:27;101390.75;;;23.18;70.31
62791;BME280;48830;53.426;10.300;2024-02-21T05:56:52;101394.28;;;23.17;71.28
62791;BME280;48830;53.426;10.300;2024-02-21T05:59:18;101410.03;;;23.17;70.50
62791;BME280;48830;53.426;10.300;2024-02-21T06:01:44;101406.53;;;23.17;70.70
62791;BME280;48830;53.426;10.300;2024-02-21T06:04:09;101409.94;;;23.20;70.88
62791;BME280;48830;53.426;10.300;2024-02-21T06:06:35;101409.13;;;23.18;70.56
62791;BME280;48830;53.426;10.300;2024-02-21T06:09:00;101403.84;;;23.20;70.64
62791;BME280;48830;53.426;10.300;2024-02-21T06:11:27;101409.13;;;23.18;70.52
62791;BME280;48830;53.426;10.300;2024-02-21T06:13:53;101406.41;;;23.21;70.23
62791;BME280;48830;53.426;10.300;2024-02-21T06:16:18;101404.72;;;23.20;70.43
62791;BME280;48830;53.426;10.300;2024-02-21T06:18:43;101409.03;;;23.21;70.81
62791;BME280;48830;53.426;10.300;2024-02-21T06:21:09;101404.72;;;23.20;70.36
62791;BME280;48830;53.426;10.300;2024-02-21T06:23:36;101414.34;;;23.20;70.35
62791;BME280;48830;53.426;10.300;2024-02-21T06:26:02;101417.81;;;23.20;70.55
62791;BME280;48830;53.426;10.300;2024-02-21T06:28:27;101413.50;;;23.19;70.75
62791;BME280;48830;53.426;10.300;2024-02-21T06:30:53;101416.06;;;23.21;70.38
62791;BME280;48830;53.426;10.300;2024-02-21T06:33:18;101406.41;;;23.21;70.54
62791;BME280;48830;53.426;10.300;2024-02-21T06:35:48;101411.72;;;23.20;70.39
62791;BME280;48830;53.426;10.300;2024-02-21T06:38:13;101419.59;;;23.18;70.67
62791;BME280;48830;53.426;10.300;2024-02-21T06:40:39;101420.44;;;23.20;70.53
62791;BME280;48830;53.426;10.300;2024-02-21T06:43:05;101410.88;;;23.19;70.19
62791;BME280;48830;53.426;10.300;2024-02-21T06:45:31;101413.50;;;23.19;70.66
62791;BME280;48830;53.426;10.300;2024-02-21T06:47:56;101404.72;;;23.20;70.46
62791;BME280;48830;53.426;10.300;2024-02-21T06:50:22;101414.28;;;23.21;70.64
62791;BME280;48830;53.426;10.300;2024-02-21T06:52:47;101414.28;;;23.21;70.35
62791;BME280;48830;53.426;10.300;2024-02-21T06:55:12;101412.56;;;23.20;70.56
62791;BME280;48830;53.426;10.300;2024-02-21T06:57:38;101409.03;;;23.21;70.56
62791;BME280;48830;53.426;10.300;2024-02-21T07:00:03;101414.41;;;23.17;70.64
62791;BME280;48830;53.426;10.300;2024-02-21T07:02:33;101413.59;;;23.15;70.65
62791;BME280;48830;53.426;10.300;2024-02-21T07:04:59;101415.28;;;23.17;70.75
62791;BME280;48830;53.426;10.300;2024-02-21T07:07:24;101403.00;;;23.19;70.44
62791;BME280;48830;53.426;10.300;2024-02-21T07:09:50;101415.28;;;23.17;70.44
62791;BME280;48830;53.426;10.300;2024-02-21T07:12:15;101423.09;;;23.19;70.36
62791;BME280;48830;53.426;10.300;2024-02-21T07:14:41;101425.69;;;23.20;70.68
62791;BME280;48830;53.426;10.300;2024-02-21T07:17:06;101413.50;;;23.19;70.34
62791;BME280;48830;53.426;10.300;2024-02-21T07:19:31;101420.44;;;23.20;70.48
62791;BME280;48830;53.426;10.300;2024-02-21T07:21:57;101423.97;;;23.19;70.76
62791;BME280;48830;53.426;10.300;2024-02-21T07:24:22;101418.72;;;23.19;70.67
62791;BME280;48830;53.426;10.300;2024-02-21T07:26:48;101423.97;;;23.19;70.51
62791;BME280;48830;53.426;10.300;2024-02-21T07:29:13;101425.72;;;23.19;70.36
62791;BME280;48830;53.426;10.300;2024-02-21T07:31:42;101432.72;;;23.18;70.68
62791;BME280;48830;53.426;10.300;2024-02-21T07:34:08;101430.09;;;23.18;70.47
62791;BME280;48830;53.426;10.300;2024-02-21T07:36:34;101436.19;;;23.19;70.67
62791;BME280;48830;53.426;10.300;2024-02-21T07:38:59;101429.34;;;23.13;70.49
62791;BME280;48830;53.426;10.300;2024-02-21T07:41:25;101434.53;;;23.16;70.60
62791;BME280;48830;53.426;10.300;2024-02-21T07:43:50;101431.09;;;23.14;70.94
62791;BME280;48830;53.426;10.300;2024-02-21T07:46:17;101435.44;;;23.15;70.62
62791;BME280;48830;53.426;10.300;2024-02-21T07:48:42;101437.22;;;23.15;70.63
62791;BME280;48830;53.426;10.300;2024-02-21T07:51:08;101436.34;;;23.14;70.37
62791;BME280;48830;53.426;10.300;2024-02-21T07:53:33;101432.81;;;23.15;70.46
62791;BME280;48830;53.426;10.300;2024-02-21T07:55:59;101431.97;;;23.15;70.60
62791;BME280;48830;53.426;10.300;2024-02-21T07:58:25;101420.50;;;23.17;70.96
62791;BME280;48830;53.426;10.300;2024-02-21T08:00:50;101421.44;;;23.16;70.46
62791;BME280;48830;53.426;10.300;2024-02-21T08:03:15;101416.19;;;23.16;70.79
62791;BME280;48830;53.426;10.300;2024-02-21T08:05:43;101412.66;;;23.17;71.08
62791;BME280;48830;53.426;10.300;2024-02-21T08:08:08;101417.94;;;23.16;70.84
62791;BME280;48830;53.426;10.300;2024-02-21T08:10:34;101425.88;;;23.14;70.90
62791;BME280;48830;53.426;10.300;2024-02-21T08:12:59;101427.59;;;23.14;70.68
62791;BME280;48830;53.426;10.300;2024-02-21T08:15:25;101424.97;;;23.14;71.23
62791;BME280;48830;53.426;10.300;2024-02-21T08:17:55;101426.72;;;23.15;70.96
62791;BME280;48830;53.426;10.300;2024-02-21T08:20:24;101418.06;;;23.11;70.71
62791;BME280;48830;53.426;10.300;2024-02-21T08:22:49;101412.75;;;23.13;70.84
62791;BME280;48830;53.426;10.300;2024-02-21T08:25:15;101418.91;;;23.12;71.46
62791;BME280;48830;53.426;10.300;2024-02-21T08:27:40;101418.88;;;23.13;71.30
62791;BME280;48830;53.426;10.300;2024-02-21T08:30:06;101415.44;;;23.11;71.22
62791;BME280;48830;53.426;10.300;2024-02-21T08:32:33;101406.63;;;23.14;71.14
62791;BME280;48830;53.426;10.300;2024-02-21T08:34:59;101397.81;;;23.16;71.48
62791;BME280;48830;53.426;10.300;2024-02-21T08:37:27;101405.63;;;23.18;71.68
62791;BME280;48830;53.426;10.300;2024-02-21T08:39:52;101405.63;;;23.19;71.64
62791;BME280;48830;53.426;10.300;2024-02-21T08:42:17;101398.59;;;23.20;72.08
62791;BME280;48830;53.426;10.300;2024-02-21T08:44:43;101398.59;;;23.20;72.06
62791;BME280;48830;53.426;10.300;2024-02-21T08:47:08;101391.63;;;23.19;74.12
62791;BME280;48830;53.426;10.300;2024-02-21T08:49:35;101397.66;;;23.22;73.49
62791;BME280;48830;53.426;10.300;2024-02-21T08:52:01;101392.41;;;23.22;74.40
62791;BME280;48830;53.426;10.300;2024-02-21T08:54:27;101388.88;;;23.23;74.53
62791;BME280;48830;53.426;10.300;2024-02-21T08:56:54;101385.34;;;23.24;74.63
62791;BME280;48830;53.426;10.300;2024-02-21T08:59:19;101388.84;;;23.25;74.29
62791;BME280;48830;53.426;10.300;2024-02-21T09:01:46;101392.31;;;23.25;74.81
62791;BME280;48830;53.426;10.300;2024-02-21T09:04:11;101387.94;;;23.26;73.86
62791;BME280;48830;53.426;10.300;2024-02-21T09:06:36;101393.22;;;23.24;74.58
62791;BME280;48830;53.426;10.300;2024-02-21T09:09:04;101400.19;;;23.25;74.78
62791;BME280;48830;53.426;10.300;2024-02-21T09:11:30;101397.56;;;23.25;74.41
62791;BME280;48830;53.426;10.300;2024-02-21T09:13:55;101395.94;;;23.21;74.65
62791;BME280;48830;53.426;10.300;2024-02-21T09:16:21;101402.81;;;23.25;74.49
62791;BME280;48830;53.426;10.300;2024-02-21T09:18:47;101394.13;;;23.23;74.71
62791;BME280;48830;53.426;10.300;2024-02-21T09:21:12;101395.81;;;23.24;74.43
62791;BME280;48830;53.426;10.300;2024-02-21T09:23:37;101400.22;;;23.24;74.67
62791;BME280;48830;53.426;10.300;2024-02-21T09:26:03;101408.09;;;23.24;74.75
62791;BME280;48830;53.426;10.300;2024-02-21T09:28:30;101402.81;;;23.25;74.42
62791;BME280;48830;53.426;10.300;2024-02-21T09:30:55;101408.25;;;23.19;74.71
62791;BME280;48830;53.426;10.300;2024-02-21T09:33:20;101403.00;;;23.19;74.62
62791;BME280;48830;53.426;10.300;2024-02-21T09:35:46;101390.69;;;23.21;74.46
62791;BME280;48830;53.426;10.300;2024-02-21T09:38:12;101393.25;;;23.23;74.58
62791;BME280;48830;53.426;10.300;2024-02-21T09:40:38;101396.75;;;23.23;74.18
62791;BME280;48830;53.426;10.300;2024-02-21T09:43:04;101388.88;;;23.23;74.09
62791;BME280;48830;53.426;10.300;2024-02-21T09:45:33;101389.78;;;23.22;74.29
62791;BME280;48830;53.426;10.300;2024-02-21T09:50:37;101385.44;;;23.21;73.91
62791;BME280;48830;53.426;10.300;2024-02-21T09:53:04;101380.19;;;23.21;73.97
62791;BME280;48830;53.426;10.300;2024-02-21T09:55:33;101376.75;;;23.19;73.99
62791;BME280;48830;53.426;10.300;2024-02-21T09:58:03;101377.63;;;23.20;74.38
62791;BME280;48830;53.426;10.300;2024-02-21T10:00:29;101378.56;;;23.17;74.38
62791;BME280;48830;53.426;10.300;2024-02-21T10:02:55;101378.47;;;23.20;74.03
62791;BME280;48830;53.426;10.300;2024-02-21T10:05:20;101375.03;;;23.18;73.79
62791;BME280;48830;53.426;10.300;2024-02-21T10:07:48;101376.84;;;23.16;73.93
62791;BME280;48830;53.426;10.300;2024-02-21T10:10:13;101381.16;;;23.17;74.25
62791;BME280;48830;53.426;10.300;2024-02-21T10:12:50;101369.88;;;23.15;74.25
62791;BME280;48830;53.426;10.300;2024-02-21T10:15:22;101374.22;;;23.16;73.99
62791;BME280;48830;53.426;10.300;2024-02-21T10:17:58;101374.44;;;23.09;73.91
62791;BME280;48830;53.426;10.300;2024-02-21T10:20:24;101373.47;;;23.11;74.26
62791;BME280;48830;53.426;10.300;2024-02-21T10:23:03;101380.44;;;23.12;74.01
62791;BME280;48830;53.426;10.300;2024-02-21T10:25:36;101375.19;;;23.12;73.60
62791;BME280;48830;53.426;10.300;2024-02-21T10:28:07;101375.19;;;23.12;73.58
62791;BME280;48830;53.426;10.300;2024-02-21T10:30:32;101369.03;;;23.13;74.04
62791;BME280;48830;53.426;10.300;2024-02-21T10:32:58;101371.66;;;23.13;73.57
62791;BME280;48830;53.426;10.300;2024-02-21T10:35:31;101374.38;;;23.10;74.09
62791;BME280;48830;53.426;10.300;2024-02-21T10:37:57;101370.06;;;23.09;73.48
62791;BME280;48830;53.426;10.300;2024-02-21T10:40:28;101369.09;;;23.12;73.87
62791;BME280;48830;53.426;10.300;2024-02-21T10:43:02;101360.38;;;23.11;73.70
62791;BME280;48830;53.426;10.300;2024-02-21T10:45:34;101362.94;;;23.13;73.65
62791;BME280;48830;53.426;10.300;2024-02-21T10:48:22;101370.94;;;23.08;73.91
62791;BME280;48830;53.426;10.300;2024-02-21T10:51:08;101364.81;;;23.09;73.76
62791;BME280;48830;53.426;10.300;2024-02-21T10:56:38;101351.69;;;23.09;73.62
62791;BME280;48830;53.426;10.300;2024-02-21T10:59:05;101349.06;;;23.09;73.74
62791;BME280;48830;53.426;10.300;2024-02-21T11:01:31;101339.44;;;23.10;73.08
62791;BME280;48830;53.426;10.300;2024-02-21T11:04:03;101335.13;;;23.07;73.18
62791;BME280;48830;53.426;10.300;2024-02-21T11:06:29;101335.97;;;23.08;73.35
62791;BME280;48830;53.426;10.300;2024-02-21T11:09:09;101336.03;;;23.06;73.50
62791;BME280;48830;53.426;10.300;2024-02-21T11:11:38;101325.53;;;23.06;73.49
62791;BME280;48830;53.426;10.300;2024-02-21T11:14:08;101332.44;;;23.10;73.30
62791;BME280;48830;53.426;10.300;2024-02-21T11:16:41;101339.44;;;23.10;72.72
62791;BME280;48830;53.426;10.300;2024-02-21T11:19:09;101326.44;;;23.05;73.30
62791;BME280;48830;53.426;10.300;2024-02-21T11:21:36;101316.81;;;23.05;73.28
62791;BME280;48830;53.426;10.300;2024-02-21T11:24:05;101323.72;;;23.08;73.57
62791;BME280;48830;53.426;10.300;2024-02-21T11:26:31;101324.44;;;23.13;73.05
62791;BME280;48830;53.426;10.300;2024-02-21T11:29:01;101317.50;;;23.12;72.16
62791;BME280;48830;53.426;10.300;2024-02-21T11:31:41;101314.06;;;23.10;71.89
62791;BME280;48830;53.426;10.300;2024-02-21T11:34:10;101316.59;;;23.13;71.33
62791;BME280;48830;53.426;10.300;2024-02-21T11:36:46;101311.31;;;23.15;72.04
62791;BME280;48830;53.426;10.300;2024-02-21T11:39:18;101305.28;;;23.11;71.33
62791;BME280;48830;53.426;10.300;2024-02-21T11:41:44;101303.66;;;23.07;71.62
62791;BME280;48830;53.426;10.300;2024-02-21T11:44:09;101312.25;;;23.12;71.73
62791;BME280;48830;53.426;10.300;2024-02-21T11:46:35;101307.97;;;23.10;71.29
62791;BME280;48830;53.426;10.300;2024-02-21T11:49:01;101296.56;;;23.11;71.08
62791;BME280;48830;53.426;10.300;2024-02-21T11:51:28;101299.25;;;23.09;nan
62791;BME280;48830;53.426;10.300;2024-02-21T11:53:54;101291.44;;;23.06;71.77
62791;BME280;48830;53.426;10.300;2024-02-21T11:56:19;101294.03;;;23.08;72.35
62791;BME280;48830;53.426;10.300;2024-02-21T11:58:46;101284.38;;;23.08;72.12
62791;BME280;48830;53.426;10.300;2024-02-21T12:01:13;101281.81;;;23.07;72.91
62791;BME280;48830;53.426;10.300;2024-02-21T12:03:38;101280.09;;;23.05;72.74
62791;BME280;48830;53.426;10.300;2024-02-21T12:06:06;101270.47;;;23.06;72.77
62791;BME280;48830;53.426;10.300;2024-02-21T12:08:45;101272.19;;;23.07;72.46
62791;BME280;48830;53.426;10.300;2024-02-21T12:11:21;101270.47;;;23.06;72.95
62791;BME280;48830;53.426;10.300;2024-02-21T12:13:47;101268.75;;;23.05;72.71
62791;BME280;48830;53.426;10.300;2024-02-21T12:16:16;101262.56;;;23.08;72.92
62791;BME280;48830;53.426;10.300;2024-02-21T12:18:43;101253.81;;;23.07;72.94
62791;BME280;48830;53.426;10.300;2024-02-21T12:21:09;101255.59;;;23.07;72.97
62791;BME280;48830;53.426;10.300;2024-02-21T12:23:38;101256.44;;;23.07;72.77
62791;BME280;48830;53.426;10.300;2024-02-21T12:26:03;101262.53;;;23.09;72.73
62791;BME280;48830;53.426;10.300;2024-02-21T12:28:30;101257.28;;;23.09;72.60
62791;BME280;48830;53.426;10.300;2024-02-21T12:30:55;101258.09;;;23.11;72.15
62791;BME280;48830;53.426;10.300;2024-02-21T12:33:21;101256.44;;;23.09;72.77
62791;BME280;48830;53.426;10.300;2024-02-21T12:35:47;101250.28;;;23.10;72.53
62791;BME280;48830;53.426;10.300;2024-02-21T12:38:14;101251.19;;;23.09;72.82
62791;BME280;48830;53.426;10.300;2024-02-21T12:40:39;101251.22;;;23.07;72.90
62791;BME280;48830;53.426;10.300;2024-02-21T12:43:05;101244.16;;;23.09;72.79
62791;BME280;48830;53.426;10.300;2024-02-21T12:45:30;101239.84;;;23.07;72.97
62791;BME280;48830;53.426;10.300;2024-02-21T12:47:56;101249.41;;;23.09;72.59